Time;durP1;ratioP1;P1;durP2;ratioP2;P2;SDS_P1;SDS_P2;PMS_P1;PMS_P2;Temp;Humidity;BMP_temperature;BMP_pressure;BME280_temperature;BME280_humidity;BME280_pressure;Samples;Min_cycle;Max_cycle;Signal;HPM_P1;HPM_P2
2022/10/22 00:01:09;;;;;;;21.02;9.65;;;12.10;99.90;;;;;;5040417;28;20449;-65
2022/10/22 00:03:35;;;;;;;16.63;9.63;;;12.10;99.90;;;;;;5021272;28;20147;-65
2022/10/22 00:06:00;;;;;;;15.90;8.85;;;12.10;99.90;;;;;;5035388;28;20406;-66
2022/10/22 00:08:26;;;;;;;15.45;9.23;;;12.00;99.90;;;;;;5021119;28;20044;-65
2022/10/22 00:10:52;;;;;;;16.02;8.43;;;12.00;99.90;;;;;;5039535;28;20041;-65
2022/10/22 00:13:18;;;;;;;17.98;9.73;;;11.90;99.90;;;;;;5019647;28;20041;-66
2022/10/22 00:15:43;;;;;;;13.52;8.57;;;11.90;99.90;;;;;;4998464;28;20181;-66
2022/10/22 00:18:09;;;;;;;17.23;9.20;;;11.90;99.90;;;;;;5014522;28;20038;-65
2022/10/22 00:20:38;;;;;;;18.35;9.23;;;11.90;99.90;;;;;;5028259;28;20044;-66
2022/10/22 00:23:03;;;;;;;17.65;9.52;;;11.90;99.90;;;;;;5032969;28;20044;-65
2022/10/22 00:25:29;;;;;;;15.85;8.70;;;11.90;99.90;;;;;;5025156;28;20048;-64
2022/10/22 00:27:55;;;;;;;17.05;8.95;;;11.90;99.90;;;;;;5044249;28;20506;-65
2022/10/22 00:30:21;;;;;;;17.25;9.20;;;11.90;99.90;;;;;;5030072;28;20052;-64
2022/10/22 00:32:46;;;;;;;18.98;9.55;;;11.90;99.90;;;;;;5043621;28;20120;-66
2022/10/22 00:35:12;;;;;;;16.77;9.70;;;12.00;99.90;;;;;;5011406;28;20049;-65
2022/10/22 00:37:37;;;;;;;14.57;9.27;;;11.90;99.90;;;;;;5025750;28;20041;-65
2022/10/22 00:40:04;;;;;;;19.13;10.20;;;11.90;99.90;;;;;;5025985;28;20409;-65
2022/10/22 00:42:29;;;;;;;17.25;10.43;;;12.00;99.90;;;;;;5047935;28;20731;-65
2022/10/22 00:45:10;;;;;;;17.95;10.50;;;12.00;99.90;;;;;;5023016;28;20128;-65
2022/10/22 00:47:55;;;;;;;20.60;10.20;;;12.10;99.90;;;;;;5022522;28;20340;-65
2022/10/22 00:50:27;;;;;;;24.83;11.20;;;12.00;99.90;;;;;;5006246;28;20376;-64
2022/10/22 00:52:54;;;;;;;23.15;10.15;;;12.00;99.90;;;;;;5049504;28;20047;-64
2022/10/22 00:55:21;;;;;;;25.08;10.55;;;12.10;99.90;;;;;;5029302;28;20445;-64
2022/10/22 00:57:47;;;;;;;19.33;10.57;;;12.00;99.90;;;;;;5027982;28;20108;-65
2022/10/22 01:00:13;;;;;;;17.83;10.10;;;12.10;99.90;;;;;;5029510;28;20033;-64
2022/10/22 01:02:39;;;;;;;20.45;11.13;;;12.00;99.90;;;;;;5046029;28;20102;-65
2022/10/22 01:05:05;;;;;;;20.67;10.77;;;12.10;99.90;;;;;;5012983;28;20439;-65
2022/10/22 01:07:37;;;;;;;18.58;9.90;;;12.10;99.90;;;;;;5027374;28;20380;-65
2022/10/22 01:10:30;;;;;;;22.92;10.82;;;12.00;99.90;;;;;;5013165;28;20041;-65
2022/10/22 01:13:07;;;;;;;18.90;9.50;;;12.10;99.90;;;;;;5041389;28;20079;-64
2022/10/22 01:15:56;;;;;;;17.45;9.63;;;12.00;99.90;;;;;;5043164;28;20037;-65
2022/10/22 01:18:35;;;;;;;22.17;10.32;;;11.90;99.90;;;;;;5033180;28;20068;-65
2022/10/22 01:21:19;;;;;;;22.93;10.37;;;11.90;99.90;;;;;;5029544;28;20198;-64
2022/10/22 01:24:09;;;;;;;22.02;11.90;;;11.80;99.90;;;;;;5038053;28;20307;-65
2022/10/22 01:26:52;;;;;;;22.83;11.25;;;11.90;99.90;;;;;;5019529;28;20049;-64
2022/10/22 01:29:25;;;;;;;22.55;11.68;;;11.80;99.90;;;;;;5019514;28;20052;-65
2022/10/22 01:32:06;;;;;;;21.90;11.73;;;11.80;99.90;;;;;;5039269;28;20045;-65
2022/10/22 01:34:33;;;;;;;18.83;11.48;;;11.80;99.90;;;;;;5044462;28;20203;-65
2022/10/22 01:37:00;;;;;;;21.17;13.07;;;11.90;99.90;;;;;;5023507;28;20496;-65
2022/10/22 01:39:29;;;;;;;23.50;12.35;;;12.00;99.90;;;;;;5009582;28;20071;-66
2022/10/22 01:41:56;;;;;;;24.15;12.38;;;12.00;99.90;;;;;;5048717;28;20094;-65
2022/10/22 01:44:33;;;;;;;21.42;12.57;;;12.10;99.90;;;;;;5025551;28;20073;-65
2022/10/22 01:47:01;;;;;;;27.48;13.35;;;12.10;99.90;;;;;;5040449;28;20055;-65
2022/10/22 01:49:38;;;;;;;27.33;13.20;;;12.20;99.90;;;;;;5029818;28;20507;-66
2022/10/22 01:52:51;;;;;;;24.33;12.48;;;12.20;99.90;;;;;;5025355;28;20536;-66
2022/10/22 01:55:33;;;;;;;21.92;12.93;;;12.30;99.90;;;;;;4998996;28;20046;-64
2022/10/22 01:58:29;;;;;;;22.60;12.27;;;12.30;99.90;;;;;;5040545;28;20052;-65
2022/10/22 02:01:24;;;;;;;21.77;11.60;;;12.30;99.90;;;;;;5021329;28;20037;-65
2022/10/22 02:03:58;;;;;;;21.80;12.05;;;12.30;99.90;;;;;;5018850;28;20118;-65
2022/10/22 02:06:26;;;;;;;21.10;12.40;;;12.30;99.90;;;;;;5026005;28;20075;-66
2022/10/22 02:08:54;;;;;;;27.17;12.63;;;12.30;99.90;;;;;;5044909;28;20044;-65
2022/10/22 02:11:20;;;;;;;18.83;12.68;;;12.30;99.90;;;;;;5011661;28;20041;-64
2022/10/22 02:13:54;;;;;;;25.40;13.00;;;12.30;99.90;;;;;;5043580;28;20036;-65
2022/10/22 02:16:44;;;;;;;21.98;12.30;;;12.30;99.90;;;;;;5042984;28;20409;-65
2022/10/22 02:19:16;;;;;;;23.98;12.70;;;12.30;99.90;;;;;;5020948;28;20045;-65
2022/10/22 02:21:43;;;;;;;24.50;12.52;;;12.20;99.90;;;;;;5047659;28;20082;-65
2022/10/22 02:24:08;;;;;;;21.35;11.60;;;12.30;99.90;;;;;;5038627;28;20040;-65
2022/10/22 02:26:40;;;;;;;22.70;12.82;;;12.20;99.90;;;;;;5029988;28;20499;-65
2022/10/22 02:29:17;;;;;;;22.08;12.30;;;12.20;99.90;;;;;;5042531;28;20048;-65
2022/10/22 02:31:46;;;;;;;19.38;12.07;;;12.20;99.90;;;;;;5002836;28;20049;-65
2022/10/22 02:34:19;;;;;;;19.38;12.25;;;12.20;99.90;;;;;;5040349;28;20093;-66
2022/10/22 02:36:46;;;;;;;23.17;11.98;;;12.30;99.90;;;;;;5043295;28;20059;-65
2022/10/22 02:39:13;;;;;;;18.25;10.82;;;12.20;99.90;;;;;;5042588;28;20037;-65
2022/10/22 02:41:39;;;;;;;20.08;10.85;;;12.20;99.90;;;;;;5045411;28;20102;-65
2022/10/22 02:44:08;;;;;;;21.90;12.15;;;12.20;99.90;;;;;;5040397;28;20041;-66
2022/10/22 02:46:34;;;;;;;20.47;11.80;;;12.20;99.90;;;;;;5001392;28;20511;-65
2022/10/22 02:49:00;;;;;;;21.10;11.70;;;12.30;99.90;;;;;;5044897;28;20287;-65
2022/10/22 02:51:25;;;;;;;20.08;11.57;;;12.30;99.90;;;;;;5030034;28;20113;-66
2022/10/22 02:53:51;;;;;;;20.95;11.43;;;12.30;99.90;;;;;;5043747;28;20025;-66
2022/10/22 02:56:16;;;;;;;17.85;11.43;;;12.30;99.90;;;;;;5024204;28;20095;-65
2022/10/22 02:58:42;;;;;;;20.45;11.27;;;12.30;99.90;;;;;;5042927;28;20029;-65
2022/10/22 03:01:08;;;;;;;20.92;11.55;;;12.30;99.90;;;;;;5024512;28;20048;-66
2022/10/22 03:03:33;;;;;;;22.00;11.88;;;12.20;99.90;;;;;;5044477;28;20053;-65
2022/10/22 03:05:59;;;;;;;18.67;11.32;;;12.20;99.90;;;;;;5025638;28;20480;-65
2022/10/22 03:08:25;;;;;;;20.52;11.65;;;12.10;99.90;;;;;;5026634;28;20481;-65
2022/10/22 03:10:50;;;;;;;24.70;12.32;;;12.10;99.90;;;;;;5027548;28;20128;-65
2022/10/22 03:13:16;;;;;;;25.50;12.18;;;12.10;99.90;;;;;;5024044;28;20049;-65
2022/10/22 03:15:41;;;;;;;25.27;11.60;;;12.10;99.90;;;;;;5022439;28;20047;-65
2022/10/22 03:18:07;;;;;;;21.38;10.48;;;12.00;99.90;;;;;;5029101;28;20041;-66
2022/10/22 03:20:32;;;;;;;20.88;10.75;;;12.00;99.90;;;;;;5053604;28;20032;-65
2022/10/22 03:22:59;;;;;;;22.52;11.50;;;12.00;99.90;;;;;;5050083;28;20192;-65
2022/10/22 03:25:27;;;;;;;24.20;11.73;;;12.00;99.90;;;;;;5033907;28;20052;-66
2022/10/22 03:27:55;;;;;;;25.42;12.20;;;12.00;99.90;;;;;;5032506;28;20033;-64
2022/10/22 03:30:21;;;;;;;23.05;12.05;;;12.10;99.90;;;;;;5028567;28;20508;-65
2022/10/22 03:32:47;;;;;;;20.55;12.55;;;12.10;99.90;;;;;;5031496;28;20045;-66
2022/10/22 03:35:12;;;;;;;24.63;12.82;;;12.10;99.90;;;;;;5027490;28;20041;-66
2022/10/22 03:37:39;;;;;;;22.88;12.20;;;12.20;99.90;;;;;;5023908;28;20082;-65
2022/10/22 03:40:06;;;;;;;23.10;12.80;;;12.20;99.90;;;;;;5033025;28;20034;-65
2022/10/22 03:42:32;;;;;;;22.92;12.40;;;12.30;99.90;;;;;;5032245;28;20466;-65
2022/10/22 03:44:57;;;;;;;24.00;12.65;;;12.30;99.90;;;;;;5026201;28;20103;-70
2022/10/22 03:47:23;;;;;;;24.80;13.45;;;12.30;99.90;;;;;;5027161;28;20140;-64
2022/10/22 03:49:52;;;;;;;22.70;11.90;;;12.30;99.90;;;;;;5017703;28;20159;-66
2022/10/22 03:52:18;;;;;;;17.95;11.38;;;12.30;99.90;;;;;;5030333;28;20090;-66
2022/10/22 03:54:44;;;;;;;21.42;12.45;;;12.30;99.90;;;;;;5027594;28;20100;-65
2022/10/22 03:57:09;;;;;;;19.35;11.70;;;12.20;99.90;;;;;;5018370;28;20147;-65
2022/10/22 03:59:37;;;;;;;22.33;11.80;;;12.10;99.90;;;;;;5026397;28;20351;-65
2022/10/22 04:02:03;;;;;;;19.77;11.70;;;12.10;99.90;;;;;;5007630;28;20041;-65
2022/10/22 04:04:29;;;;;;;22.83;11.85;;;12.20;99.90;;;;;;5028294;28;20095;-66
2022/10/22 04:06:55;;;;;;;19.75;11.68;;;12.20;99.90;;;;;;5032710;28;20111;-65
2022/10/22 04:09:21;;;;;;;24.13;12.45;;;12.10;99.90;;;;;;5030251;28;20473;-65
2022/10/22 04:11:46;;;;;;;21.85;12.23;;;12.10;99.90;;;;;;5028719;28;20041;-65
2022/10/22 04:14:12;;;;;;;20.42;12.00;;;12.10;99.90;;;;;;5028268;28;20107;-66
2022/10/22 04:16:41;;;;;;;25.67;12.65;;;12.10;99.90;;;;;;5010143;28;20117;-64
2022/10/22 04:19:07;;;;;;;25.90;12.52;;;12.10;99.90;;;;;;5031825;28;20041;-63
2022/10/22 04:21:33;;;;;;;21.00;11.93;;;12.10;99.90;;;;;;5031530;28;20038;-63
2022/10/22 04:24:00;;;;;;;23.48;13.32;;;12.10;99.90;;;;;;5029509;28;20077;-64
2022/10/22 04:26:26;;;;;;;25.65;12.38;;;12.10;99.90;;;;;;5030650;28;20400;-64
2022/10/22 04:28:52;;;;;;;21.90;12.82;;;12.10;99.90;;;;;;5024400;28;20041;-64
2022/10/22 04:31:20;;;;;;;23.65;13.30;;;12.10;99.90;;;;;;5022311;28;20103;-64
2022/10/22 04:33:46;;;;;;;23.73;12.52;;;12.10;99.90;;;;;;5026918;28;20082;-64
2022/10/22 04:36:15;;;;;;;23.42;13.30;;;12.10;99.90;;;;;;5030317;28;20133;-64
2022/10/22 04:38:42;;;;;;;23.02;12.18;;;12.10;99.90;;;;;;5014233;28;20124;-64
2022/10/22 04:41:14;;;;;;;24.33;13.05;;;12.00;99.90;;;;;;5026573;28;20033;-64
2022/10/22 04:43:42;;;;;;;22.50;12.57;;;11.90;99.90;;;;;;5011351;28;20041;-64
2022/10/22 04:46:10;;;;;;;23.50;13.32;;;12.10;99.90;;;;;;5014902;28;20041;-63
2022/10/22 04:48:37;;;;;;;20.55;13.10;;;12.00;99.90;;;;;;5010796;28;20086;-64
2022/10/22 04:51:03;;;;;;;23.52;13.13;;;12.10;99.90;;;;;;5029540;28;20043;-64
2022/10/22 04:53:29;;;;;;;24.35;12.98;;;12.10;99.90;;;;;;5013906;28;20059;-65
2022/10/22 04:55:54;;;;;;;25.73;13.40;;;12.10;99.90;;;;;;5024247;28;20032;-65
2022/10/22 04:58:20;;;;;;;22.55;12.65;;;12.10;99.90;;;;;;5027117;28;20148;-64
2022/10/22 05:00:45;;;;;;;21.95;12.85;;;12.10;99.90;;;;;;5021490;28;20110;-65
2022/10/22 05:03:11;;;;;;;22.58;12.50;;;12.10;99.90;;;;;;5043338;28;20037;-64
2022/10/22 05:05:36;;;;;;;24.88;12.80;;;12.00;99.90;;;;;;5021841;28;20047;-65
2022/10/22 05:08:02;;;;;;;27.27;12.52;;;12.00;99.90;;;;;;5031761;28;20490;-64
2022/10/22 05:10:28;;;;;;;26.08;12.77;;;12.00;99.90;;;;;;5043960;28;20422;-64
2022/10/22 05:12:53;;;;;;;22.27;12.68;;;12.00;99.90;;;;;;5006245;28;20349;-65
2022/10/22 05:15:19;;;;;;;21.48;11.93;;;12.00;99.90;;;;;;5044294;28;20137;-64
2022/10/22 05:17:44;;;;;;;21.83;12.60;;;12.00;99.90;;;;;;5047581;28;20044;-64
2022/10/22 05:20:10;;;;;;;26.55;12.88;;;12.00;99.90;;;;;;5026264;28;20140;-63
2022/10/22 05:22:36;;;;;;;25.35;13.13;;;12.00;99.90;;;;;;5044595;28;20116;-65
2022/10/22 05:25:02;;;;;;;29.13;13.23;;;12.00;99.90;;;;;;5011567;28;20199;-63
2022/10/22 05:27:27;;;;;;;20.55;12.10;;;12.00;99.90;;;;;;5018301;28;20052;-64
2022/10/22 05:29:53;;;;;;;21.20;12.07;;;12.00;99.90;;;;;;5023174;28;20071;-64
2022/10/22 05:32:18;;;;;;;21.35;12.57;;;11.90;99.90;;;;;;5011228;28;20377;-63
2022/10/22 05:34:44;;;;;;;20.90;12.20;;;11.90;99.90;;;;;;5028873;28;20472;-64
2022/10/22 05:37:09;;;;;;;20.30;12.10;;;11.90;99.90;;;;;;5028706;28;20461;-64
2022/10/22 05:39:35;;;;;;;23.40;12.20;;;11.90;99.90;;;;;;5034530;28;20418;-64
2022/10/22 05:42:02;;;;;;;21.25;12.25;;;11.90;99.90;;;;;;5028367;28;20068;-65
2022/10/22 05:44:27;;;;;;;25.40;12.50;;;12.00;99.90;;;;;;5017680;28;20045;-64
2022/10/22 05:46:53;;;;;;;25.27;12.63;;;12.00;99.90;;;;;;5007763;28;20127;-65
2022/10/22 05:49:19;;;;;;;25.98;12.07;;;12.00;99.90;;;;;;5046612;28;20044;-64
2022/10/22 05:51:45;;;;;;;28.83;13.40;;;12.00;99.90;;;;;;5030952;28;20045;-64
2022/10/22 05:54:18;;;;;;;24.35;12.88;;;12.00;99.90;;;;;;5044023;28;20124;-64
2022/10/22 05:56:44;;;;;;;26.05;12.15;;;12.00;99.90;;;;;;5027513;28;20507;-64
2022/10/22 05:59:10;;;;;;;21.77;11.82;;;12.00;99.90;;;;;;5044184;28;20069;-63
2022/10/22 06:01:37;;;;;;;21.48;12.18;;;11.90;99.90;;;;;;5018654;28;20044;-63
2022/10/22 06:04:05;;;;;;;26.40;12.55;;;11.90;99.90;;;;;;5041194;28;20098;-63
2022/10/22 06:06:34;;;;;;;24.90;13.02;;;12.00;99.90;;;;;;5037002;28;20033;-63
2022/10/22 06:09:05;;;;;;;22.42;11.85;;;12.00;99.90;;;;;;5027000;28;20051;-63
2022/10/22 06:11:31;;;;;;;24.88;11.65;;;12.00;99.90;;;;;;5032849;28;20040;-64
2022/10/22 06:13:57;;;;;;;19.95;11.98;;;12.00;99.90;;;;;;5025581;28;20098;-64
2022/10/22 06:16:23;;;;;;;22.88;12.48;;;12.10;99.90;;;;;;5048879;28;20534;-63
2022/10/22 06:18:48;;;;;;;25.35;13.00;;;12.10;99.90;;;;;;5032537;28;20060;-64
2022/10/22 06:21:15;;;;;;;19.77;12.07;;;12.10;99.90;;;;;;5025882;28;20040;-63
2022/10/22 06:23:41;;;;;;;21.63;11.93;;;12.20;99.90;;;;;;5029771;28;20353;-64
2022/10/22 06:26:07;;;;;;;22.42;12.30;;;12.20;99.90;;;;;;5032333;28;20139;-63
2022/10/22 06:28:34;;;;;;;24.00;12.38;;;12.20;99.90;;;;;;5038171;28;20091;-64
2022/10/22 06:31:01;;;;;;;24.63;13.02;;;12.20;99.90;;;;;;5027299;28;20044;-64
2022/10/22 06:33:28;;;;;;;23.83;12.43;;;12.30;99.90;;;;;;5027111;28;20056;-64
2022/10/22 06:35:53;;;;;;;22.42;12.25;;;12.30;99.90;;;;;;5032950;28;20041;-64
2022/10/22 06:38:19;;;;;;;24.58;11.50;;;12.30;99.90;;;;;;5032659;28;20045;-64
2022/10/22 06:40:45;;;;;;;22.58;12.48;;;12.30;99.90;;;;;;5027195;28;20430;-64
2022/10/22 06:43:12;;;;;;;21.38;11.85;;;12.40;99.90;;;;;;5029052;28;20029;-65
2022/10/22 06:45:39;;;;;;;18.77;11.57;;;12.40;99.90;;;;;;5029435;28;20106;-64
2022/10/22 06:48:05;;;;;;;21.90;11.73;;;12.40;99.90;;;;;;5051196;28;20045;-64
2022/10/22 06:50:32;;;;;;;20.02;11.35;;;12.50;99.90;;;;;;5044842;28;20645;-64
2022/10/22 06:52:58;;;;;;;20.38;11.18;;;12.50;99.90;;;;;;5026671;28;20046;-64
2022/10/22 06:55:23;;;;;;;22.33;10.90;;;12.50;99.90;;;;;;5028430;28;20437;-64
2022/10/22 06:57:49;;;;;;;20.30;11.10;;;12.50;99.90;;;;;;5026944;28;20037;-65
2022/10/22 07:00:15;;;;;;;21.45;11.68;;;12.50;99.90;;;;;;5046496;28;20048;-64
2022/10/22 07:02:41;;;;;;;21.35;10.38;;;12.70;99.90;;;;;;5025739;28;20041;-65
2022/10/22 07:05:07;;;;;;;18.77;10.57;;;12.70;99.90;;;;;;5041753;28;20112;-64
2022/10/22 07:07:32;;;;;;;20.60;10.82;;;12.70;99.90;;;;;;5036637;28;20441;-64
2022/10/22 07:09:58;;;;;;;22.95;10.55;;;12.90;99.90;;;;;;5028525;28;20101;-64
2022/10/22 07:12:24;;;;;;;16.73;9.63;;;12.90;99.90;;;;;;5047714;28;20349;-64
2022/10/22 07:14:49;;;;;;;18.35;10.75;;;13.00;99.90;;;;;;5028598;28;20426;-64
2022/10/22 07:17:15;;;;;;;16.48;9.70;;;13.00;99.90;;;;;;5047351;28;20151;-64
2022/10/22 07:19:41;;;;;;;18.42;10.07;;;13.00;99.90;;;;;;5045268;28;20029;-64
2022/10/22 07:22:06;;;;;;;17.92;10.30;;;13.10;99.90;;;;;;5031482;28;20072;-64
2022/10/22 07:24:32;;;;;;;20.10;9.65;;;13.10;99.90;;;;;;5028423;28;20041;-65
2022/10/22 07:26:57;;;;;;;17.23;9.45;;;13.10;99.90;;;;;;5047965;28;20052;-63
2022/10/22 07:29:23;;;;;;;17.25;9.48;;;13.10;99.90;;;;;;5017661;28;20053;-64
2022/10/22 07:31:49;;;;;;;20.63;9.93;;;13.20;99.90;;;;;;5046490;28;20120;-64
2022/10/22 07:34:14;;;;;;;17.95;9.57;;;13.20;99.90;;;;;;5044083;28;20048;-64
2022/10/22 07:36:40;;;;;;;17.13;9.43;;;13.30;99.90;;;;;;5011480;28;20044;-64
2022/10/22 07:39:05;;;;;;;16.48;9.85;;;13.30;99.90;;;;;;5012510;28;20102;-63
2022/10/22 07:41:31;;;;;;;14.80;9.13;;;13.30;99.90;;;;;;5027738;28;20061;-64
2022/10/22 07:43:57;;;;;;;17.85;8.18;;;13.40;99.90;;;;;;5030853;28;20047;-65
2022/10/22 07:46:23;;;;;;;20.80;9.80;;;13.40;99.90;;;;;;5027810;28;20044;-65
2022/10/22 07:48:49;;;;;;;14.85;8.90;;;13.40;99.90;;;;;;5048595;28;20049;-64
2022/10/22 07:51:15;;;;;;;19.85;9.23;;;13.50;99.90;;;;;;5041649;28;20048;-65
2022/10/22 07:53:41;;;;;;;14.35;8.82;;;13.50;99.90;;;;;;5041829;28;20346;-65
2022/10/22 07:56:07;;;;;;;16.73;8.05;;;13.60;99.90;;;;;;5021003;28;20041;-65
2022/10/22 07:58:33;;;;;;;16.20;9.02;;;13.60;99.90;;;;;;5023924;28;20057;-65
2022/10/22 08:01:04;;;;;;;18.38;9.10;;;13.70;99.90;;;;;;5025400;28;20546;-65
2022/10/22 08:03:30;;;;;;;16.10;8.32;;;13.60;99.90;;;;;;5030273;28;20074;-64
2022/10/22 08:05:56;;;;;;;16.75;8.35;;;13.70;99.90;;;;;;5049386;28;20040;-65
2022/10/22 08:08:22;;;;;;;18.50;7.88;;;13.70;99.90;;;;;;5046642;28;20506;-65
2022/10/22 08:10:51;;;;;;;15.25;8.23;;;13.70;99.90;;;;;;5050603;28;20041;-65
2022/10/22 08:13:16;;;;;;;15.05;8.18;;;13.70;99.90;;;;;;5049377;28;20508;-65
2022/10/22 08:15:42;;;;;;;17.40;8.38;;;13.70;99.90;;;;;;5031483;28;20131;-65
2022/10/22 08:18:08;;;;;;;14.68;8.48;;;13.80;99.90;;;;;;5013780;28;20049;-64
2022/10/22 08:20:34;;;;;;;14.07;7.53;;;13.80;99.90;;;;;;5050516;28;20056;-65
2022/10/22 08:22:59;;;;;;;15.95;7.97;;;13.70;99.90;;;;;;5028380;28;20054;-65
2022/10/22 08:25:26;;;;;;;14.43;7.63;;;13.80;99.90;;;;;;5050018;28;20429;-65
2022/10/22 08:27:51;;;;;;;13.75;7.78;;;13.70;99.90;;;;;;5012459;28;20131;-65
2022/10/22 08:30:17;;;;;;;15.55;7.97;;;13.80;99.90;;;;;;5029116;28;20476;-67
2022/10/22 08:32:43;;;;;;;17.13;8.27;;;13.80;99.90;;;;;;5045219;28;20037;-65
2022/10/22 08:35:08;;;;;;;17.50;8.40;;;13.80;99.90;;;;;;5030808;28;20140;-64
2022/10/22 08:37:34;;;;;;;15.32;7.68;;;13.90;99.90;;;;;;5045953;28;20041;-65
2022/10/22 08:40:00;;;;;;;10.82;7.05;;;14.00;99.90;;;;;;5017961;28;20060;-65
2022/10/22 08:42:29;;;;;;;23.25;7.70;;;14.10;99.90;;;;;;5027833;28;20044;-66
2022/10/22 08:44:54;;;;;;;11.85;6.88;;;14.20;99.90;;;;;;5026343;28;20075;-65
2022/10/22 08:47:43;;;;;;;14.27;7.57;;;14.30;99.90;;;;;;5028989;28;20125;-66
2022/10/22 08:50:11;;;;;;;17.23;7.13;;;14.30;99.90;;;;;;5048193;28;20124;-65
2022/10/22 08:52:40;;;;;;;14.23;6.28;;;14.40;99.90;;;;;;5044607;28;20039;-66
2022/10/22 08:55:12;;;;;;;14.85;6.68;;;14.50;99.90;;;;;;5027351;28;20040;-65
2022/10/22 08:57:52;;;;;;;12.45;6.85;;;14.50;99.90;;;;;;5031526;28;20060;-66
2022/10/22 09:00:22;;;;;;;14.38;6.32;;;14.60;99.90;;;;;;5044618;28;20380;-65
2022/10/22 09:03:26;;;;;;;10.00;5.70;;;14.60;99.90;;;;;;5043741;28;20037;-66
2022/10/22 09:06:01;;;;;;;15.55;6.65;;;14.80;99.90;;;;;;5036630;28;20037;-66
2022/10/22 09:08:26;;;;;;;11.93;5.70;;;14.80;99.90;;;;;;5030744;28;20566;-65
2022/10/22 09:11:00;;;;;;;14.90;6.47;;;14.80;99.90;;;;;;5045514;28;20243;-65
2022/10/22 09:13:25;;;;;;;11.07;5.22;;;14.90;99.90;;;;;;5014512;28;20053;-66
2022/10/22 09:15:56;;;;;;;13.15;5.85;;;15.00;99.90;;;;;;5048897;28;20037;-66
2022/10/22 09:18:29;;;;;;;15.30;5.82;;;15.00;99.90;;;;;;5025904;28;20037;-66
2022/10/22 09:21:01;;;;;;;10.68;5.18;;;15.10;99.90;;;;;;5041586;28;20038;-65
2022/10/22 09:23:56;;;;;;;15.85;5.82;;;15.20;99.90;;;;;;5041516;28;20032;-65
2022/10/22 09:26:21;;;;;;;16.48;5.30;;;15.20;99.90;;;;;;5032168;28;20155;-66
2022/10/22 09:28:51;;;;;;;10.57;4.85;;;15.30;99.90;;;;;;5038182;28;20895;-65
2022/10/22 09:31:17;;;;;;;12.32;5.18;;;15.40;99.90;;;;;;5001655;28;20083;-65
2022/10/22 09:33:47;;;;;;;12.57;4.95;;;15.40;99.90;;;;;;5018164;28;20952;-65
2022/10/22 09:36:20;;;;;;;13.07;4.22;;;15.50;99.90;;;;;;5030816;28;20049;-65
2022/10/22 09:38:51;;;;;;;13.30;4.80;;;15.60;99.90;;;;;;5032129;28;20094;-64
2022/10/22 09:41:18;;;;;;;11.68;4.85;;;15.60;99.90;;;;;;5044713;28;20240;-66
2022/10/22 09:43:48;;;;;;;11.70;4.60;;;15.70;99.90;;;;;;5029606;28;20110;-66
2022/10/22 09:46:20;;;;;;;10.38;4.43;;;15.80;99.90;;;;;;5048725;28;20036;-65
2022/10/22 09:48:54;;;;;;;14.60;5.13;;;15.90;99.90;;;;;;5030044;28;20049;-66
2022/10/22 09:51:23;;;;;;;10.20;4.57;;;16.00;99.90;;;;;;5041948;28;20032;-66
2022/10/22 09:53:58;;;;;;;11.73;4.22;;;16.10;99.90;;;;;;5048858;28;20479;-65
2022/10/22 09:56:28;;;;;;;11.00;4.15;;;16.10;99.90;;;;;;5048909;28;20028;-66
2022/10/22 09:58:56;;;;;;;17.23;4.20;;;16.20;99.90;;;;;;5049452;28;20033;-66
2022/10/22 10:01:26;;;;;;;12.98;4.32;;;16.20;99.90;;;;;;5028524;28;20075;-66
2022/10/22 10:03:52;;;;;;;12.05;4.30;;;16.20;99.90;;;;;;5047686;28;20044;-65
2022/10/22 10:06:22;;;;;;;8.75;3.92;;;16.10;99.90;;;;;;5033068;28;20041;-66
2022/10/22 10:08:48;;;;;;;13.13;4.45;;;16.10;99.90;;;;;;5047845;28;20190;-66
2022/10/22 10:11:40;;;;;;;9.60;4.15;;;16.10;99.90;;;;;;5029864;28;20129;-65
2022/10/22 10:14:34;;;;;;;8.02;3.60;;;16.00;99.90;;;;;;5029633;28;20118;-66
2022/10/22 10:17:25;;;;;;;7.07;3.88;;;16.00;99.90;;;;;;5030976;28;20446;-65
2022/10/22 10:19:58;;;;;;;9.40;4.40;;;16.00;99.90;;;;;;5030553;28;20393;-65
2022/10/22 10:22:34;;;;;;;15.73;4.40;;;16.00;99.90;;;;;;5029158;28;20124;-65
2022/10/22 10:25:15;;;;;;;9.90;4.22;;;16.00;99.90;;;;;;5029903;28;20109;-65
2022/10/22 10:27:48;;;;;;;;;;;16.00;99.90;;;;;;5029181;28;20036;-65
2022/10/22 10:30:19;;;;;;;9.57;4.40;;;16.00;99.90;;;;;;5018086;28;19921;-65
2022/10/22 10:33:14;;;;;;;13.15;4.75;;;16.00;99.90;;;;;;5029083;28;20049;-66
2022/10/22 10:35:48;;;;;;;12.15;5.07;;;16.10;99.90;;;;;;5048795;28;20052;-65
2022/10/22 10:38:31;;;;;;;12.05;4.53;;;16.10;99.90;;;;;;5050226;28;20366;-65
2022/10/22 10:41:06;;;;;;;12.63;5.03;;;16.10;99.90;;;;;;5045945;28;20110;-65
2022/10/22 10:43:37;;;;;;;9.48;4.60;;;16.10;99.90;;;;;;5046564;28;20033;-65
2022/10/22 10:46:47;;;;;;;9.02;4.40;;;16.20;99.90;;;;;;5010526;28;20111;-65
2022/10/22 10:49:17;;;;;;;15.30;5.17;;;16.20;99.90;;;;;;5019365;28;20135;-66
2022/10/22 10:52:10;;;;;;;13.70;4.78;;;16.20;99.90;;;;;;5044631;28;20107;-65
2022/10/22 10:54:42;;;;;;;12.90;5.40;;;16.30;99.90;;;;;;5026270;28;20048;-65
2022/10/22 10:57:30;;;;;;;14.43;5.13;;;16.40;99.90;;;;;;5011870;28;20038;-65
2022/10/22 11:00:05;;;;;;;15.32;4.70;;;16.50;99.90;;;;;;5017854;28;20033;-70
2022/10/22 11:03:00;;;;;;;9.52;4.75;;;16.50;99.90;;;;;;5042457;28;20620;-65
2022/10/22 11:05:44;;;;;;;12.38;5.28;;;16.70;99.90;;;;;;5024496;28;20205;-65
2022/10/22 11:08:16;;;;;;;13.52;5.22;;;16.70;99.90;;;;;;5045430;28;20490;-66
2022/10/22 11:10:53;;;;;;;12.27;4.82;;;16.70;99.90;;;;;;5054822;28;20048;-66
2022/10/22 11:13:37;;;;;;;12.73;5.05;;;16.70;99.90;;;;;;5054795;28;20048;-66
2022/10/22 11:16:27;;;;;;;10.85;4.65;;;16.60;99.90;;;;;;5030102;28;20037;-66
2022/10/22 11:18:56;;;;;;;13.77;4.80;;;16.50;99.90;;;;;;5044207;28;20377;-66
2022/10/22 11:21:38;;;;;;;13.32;5.63;;;16.40;99.90;;;;;;5046581;28;20045;-66
2022/10/22 11:24:06;;;;;;;9.52;4.95;;;16.30;99.90;;;;;;5047166;28;20041;-66
2022/10/22 11:26:51;;;;;;;9.68;4.70;;;16.20;99.90;;;;;;5027910;28;20265;-66
2022/10/22 11:29:24;;;;;;;11.75;4.68;;;16.20;99.90;;;;;;5025169;28;20038;-66
2022/10/22 11:31:51;;;;;;;9.18;4.93;;;16.10;99.90;;;;;;5024383;28;20120;-65
2022/10/22 11:34:19;;;;;;;9.90;4.57;;;16.00;99.90;;;;;;5022089;28;20559;-66
2022/10/22 11:36:46;;;;;;;9.43;5.03;;;16.00;99.90;;;;;;5033803;28;20128;-65
2022/10/22 11:39:38;;;;;;;10.45;4.78;;;16.00;99.90;;;;;;5041058;28;20072;-66
2022/10/22 11:42:11;;;;;;;11.75;5.20;;;16.00;99.90;;;;;;5026950;28;20425;-65
2022/10/22 11:44:56;;;;;;;10.65;4.90;;;16.00;99.90;;;;;;5049307;28;20107;-65
2022/10/22 11:47:50;;;;;;;7.80;4.65;;;16.00;99.90;;;;;;5046955;28;20029;-65
2022/10/22 11:50:24;;;;;;;13.30;5.85;;;15.90;99.90;;;;;;5031805;28;20127;-65
2022/10/22 11:52:59;;;;;;;10.98;5.57;;;15.90;99.90;;;;;;5031696;28;20729;-65
2022/10/22 11:55:47;;;;;;;10.75;5.70;;;15.90;99.90;;;;;;5031901;28;20045;-65
2022/10/22 11:58:27;;;;;;;8.50;5.47;;;16.00;99.90;;;;;;5030630;28;20041;-66
2022/10/22 12:00:57;;;;;;;9.82;5.60;;;16.20;99.90;;;;;;5050437;28;20454;-65
2022/10/22 12:03:39;;;;;;;10.32;6.15;;;16.30;99.90;;;;;;5030284;28;20059;-66
2022/10/22 12:06:18;;;;;;;12.95;5.95;;;16.30;99.90;;;;;;5016977;28;20057;-65
2022/10/22 12:08:53;;;;;;;13.57;5.80;;;16.30;99.90;;;;;;5050959;28;20434;-65
2022/10/22 12:11:39;;;;;;;14.10;6.43;;;16.40;99.90;;;;;;5049912;28;20376;-65
2022/10/22 12:14:28;;;;;;;15.27;6.03;;;16.30;99.90;;;;;;5051357;28;20037;-65
2022/10/22 12:17:13;;;;;;;11.20;5.88;;;16.30;99.90;;;;;;5032047;28;20377;-65
2022/10/22 12:19:40;;;;;;;11.05;5.78;;;16.40;99.90;;;;;;5026838;28;20068;-66
2022/10/22 12:22:09;;;;;;;10.25;5.72;;;16.40;99.90;;;;;;5051238;28;20041;-65
2022/10/22 12:24:39;;;;;;;11.77;5.47;;;16.50;99.90;;;;;;5031335;28;20203;-66
2022/10/22 12:27:16;;;;;;;14.90;5.90;;;16.50;99.90;;;;;;5052296;28;20052;-66
2022/10/22 12:29:42;;;;;;;11.20;6.10;;;16.50;99.90;;;;;;5011721;28;20041;-65
2022/10/22 12:32:12;;;;;;;11.73;5.82;;;16.20;99.90;;;;;;5048004;28;20055;-65
2022/10/22 12:34:48;;;;;;;11.68;6.82;;;16.00;99.90;;;;;;5030769;28;20056;-66
2022/10/22 12:37:15;;;;;;;17.20;6.85;;;15.80;99.90;;;;;;5050371;28;20476;-66
2022/10/22 12:39:40;;;;;;;14.07;6.60;;;15.60;99.90;;;;;;5048958;28;20171;-65
2022/10/22 12:42:11;;;;;;;10.50;6.35;;;15.50;99.90;;;;;;5048020;28;20064;-66
2022/10/22 12:44:37;;;;;;;15.35;6.95;;;15.40;99.90;;;;;;5029169;28;20045;-66
2022/10/22 12:47:04;;;;;;;12.48;7.10;;;15.40;99.90;;;;;;5030071;28;20040;-66
2022/10/22 12:49:41;;;;;;;12.68;7.45;;;15.30;99.90;;;;;;5023224;28;20135;-66